createdAt,value
2022-10-31T00:02:22.604Z,4.82
2022-10-31T00:04:48.996Z,5.82
2022-10-31T00:07:15.252Z,5.38
2022-10-31T00:09:41.502Z,5.97
2022-10-31T00:12:07.751Z,5.63
2022-10-31T00:14:34.065Z,5.55
2022-10-31T00:17:00.335Z,5.57
2022-10-31T00:19:26.854Z,5.30
2022-10-31T00:21:53.344Z,5.20
2022-10-31T00:24:19.635Z,5.93
2022-10-31T00:26:45.933Z,4.85
2022-10-31T00:29:13.697Z,6.00
2022-10-31T00:31:39.951Z,5.30
2022-10-31T00:34:06.303Z,4.72
2022-10-31T00:36:32.581Z,4.43
2022-10-31T00:38:59.403Z,5.05
2022-10-31T00:41:25.734Z,5.40
2022-10-31T00:43:52.269Z,4.97
2022-10-31T00:46:18.597Z,4.65
2022-10-31T00:48:44.846Z,4.80
2022-10-31T00:51:11.584Z,4.70
2022-10-31T00:53:37.866Z,4.68
2022-10-31T00:56:04.527Z,4.82
2022-10-31T00:58:30.905Z,4.93
2022-10-31T01:00:57.459Z,4.45
2022-10-31T01:03:28.188Z,4.97
2022-10-31T01:05:58.170Z,4.35
2022-10-31T01:08:24.624Z,4.43
2022-10-31T01:11:06.815Z,5.00
2022-10-31T01:13:33.407Z,5.00
2022-10-31T01:16:00.409Z,4.50
2022-10-31T01:18:27.882Z,4.97
2022-10-31T01:21:00.190Z,4.72
2022-10-31T01:23:26.466Z,4.57
2022-10-31T01:25:59.856Z,4.68
2022-10-31T01:31:02.631Z,4.57
2022-10-31T01:33:28.932Z,4.30
2022-10-31T01:35:55.212Z,4.55
2022-10-31T01:38:22.057Z,5.00
2022-10-31T01:40:48.318Z,4.88
2022-10-31T01:43:15.162Z,4.65
2022-10-31T01:45:46.877Z,5.50
2022-10-31T01:48:16.409Z,5.50
2022-10-31T01:50:44.365Z,5.38
2022-10-31T01:53:11.322Z,7.45
2022-10-31T01:55:40.809Z,5.93
2022-10-31T01:58:09.281Z,5.78
2022-10-31T02:00:35.649Z,6.28
2022-10-31T02:03:02.461Z,6.70
2022-10-31T02:05:30.431Z,6.40
2022-10-31T02:08:02.974Z,7.32
2022-10-31T02:10:30.059Z,7.40
2022-10-31T02:12:58.631Z,6.75
2022-10-31T02:15:25.412Z,6.97
2022-10-31T02:17:52.295Z,6.72
2022-10-31T02:20:20.263Z,6.80
2022-10-31T02:23:05.518Z,6.75
2022-10-31T02:25:50.474Z,6.85
2022-10-31T02:28:37.012Z,7.25
2022-10-31T02:31:16.842Z,5.63
2022-10-31T02:33:58.605Z,6.97
2022-10-31T02:36:28.916Z,6.88
2022-10-31T02:38:58.246Z,7.78
2022-10-31T02:41:43.138Z,7.70
2022-10-31T02:44:28.252Z,7.60
2022-10-31T02:46:58.330Z,8.33
2022-10-31T02:49:24.605Z,7.28
2022-10-31T02:51:51.339Z,8.23
2022-10-31T02:54:22.568Z,9.85
2022-10-31T02:56:49.896Z,8.38
2022-10-31T02:59:16.600Z,7.68
2022-10-31T03:01:49.361Z,7.90
2022-10-31T03:04:18.689Z,7.25
2022-10-31T03:06:44.953Z,9.43
2022-10-31T03:09:11.180Z,9.80
2022-10-31T03:11:42.991Z,8.75
2022-10-31T03:14:24.684Z,8.85
2022-10-31T03:16:52.523Z,9.02
2022-10-31T03:19:23.792Z,8.73
2022-10-31T03:21:58.720Z,7.90
2022-10-31T03:24:28.333Z,9.10
2022-10-31T03:26:55.684Z,8.65
2022-10-31T03:29:24.576Z,8.30
2022-10-31T03:31:54.605Z,8.57
2022-10-31T03:34:21.451Z,8.93
2022-10-31T03:36:50.317Z,9.52
2022-10-31T03:39:18.183Z,9.85
2022-10-31T03:41:47.827Z,8.98
2022-10-31T03:44:16.374Z,8.70
2022-10-31T03:46:43.035Z,7.97
2022-10-31T03:49:09.474Z,9.20
2022-10-31T03:51:40.692Z,9.55
2022-10-31T03:54:14.675Z,9.07
2022-10-31T03:56:42.778Z,9.48
2022-10-31T03:59:13.099Z,8.82
2022-10-31T04:01:41.365Z,9.25
2022-10-31T04:04:07.847Z,9.68
2022-10-31T04:06:35.621Z,9.50
2022-10-31T04:09:04.138Z,9.10
2022-10-31T04:11:32.817Z,9.77
2022-10-31T04:14:00.715Z,9.02
2022-10-31T04:16:27.429Z,9.25
2022-10-31T04:18:53.869Z,9.52
2022-10-31T04:21:20.116Z,10.18
2022-10-31T04:23:46.366Z,9.65
2022-10-31T04:26:12.872Z,10.02
2022-10-31T04:28:39.181Z,9.45
2022-10-31T04:31:06.198Z,9.45
2022-10-31T04:33:32.426Z,9.02
2022-10-31T04:35:58.745Z,10.25
2022-10-31T04:38:24.991Z,8.93
2022-10-31T04:40:51.253Z,9.32
2022-10-31T04:43:17.567Z,9.07
2022-10-31T04:45:43.871Z,10.93
2022-10-31T04:48:10.117Z,9.27
2022-10-31T04:50:36.364Z,9.52
2022-10-31T04:53:02.650Z,8.73
2022-10-31T04:55:28.906Z,9.98
2022-10-31T04:57:55.251Z,8.65
2022-10-31T05:00:22.698Z,8.80
2022-10-31T05:02:52.876Z,9.43
2022-10-31T05:05:20.272Z,9.65
2022-10-31T05:07:47.450Z,9.23
2022-10-31T05:10:24.262Z,9.70
2022-10-31T05:13:01.377Z,9.70
2022-10-31T05:15:28.720Z,9.43
2022-10-31T05:17:55.364Z,8.63
2022-10-31T05:20:22.745Z,9.00
2022-10-31T05:22:50.086Z,9.57
2022-10-31T05:25:16.791Z,9.70
2022-10-31T05:27:44.448Z,9.07
2022-10-31T05:30:11.789Z,9.48
2022-10-31T05:32:41.856Z,9.88
2022-10-31T05:35:11.902Z,9.95
2022-10-31T05:37:38.512Z,8.70
2022-10-31T05:40:08.107Z,9.55
2022-10-31T05:42:34.979Z,8.43
2022-10-31T05:45:01.267Z,8.77
2022-10-31T05:47:27.721Z,9.30
2022-10-31T05:49:54.049Z,8.30
2022-10-31T05:52:20.587Z,9.77
2022-10-31T05:54:46.866Z,9.45
2022-10-31T05:57:13.120Z,10.02
2022-10-31T05:59:39.410Z,9.70
2022-10-31T06:02:05.664Z,9.50
2022-10-31T06:04:31.976Z,9.95
2022-10-31T06:06:58.476Z,10.52
2022-10-31T06:09:24.789Z,10.13
2022-10-31T06:11:51.215Z,10.60
2022-10-31T06:14:17.451Z,10.23
2022-10-31T06:16:43.764Z,10.63
2022-10-31T06:19:10.113Z,11.23
2022-10-31T06:21:36.368Z,10.65
2022-10-31T06:24:02.671Z,10.55
2022-10-31T06:26:29.102Z,10.80
2022-10-31T06:28:57.727Z,10.35
2022-10-31T06:31:26.185Z,10.00
2022-10-31T06:33:52.437Z,10.35
2022-10-31T06:36:18.727Z,11.05
2022-10-31T06:38:45.034Z,11.32
2022-10-31T06:41:11.273Z,11.02
2022-10-31T06:43:37.574Z,10.45
2022-10-31T06:46:04.418Z,10.93
2022-10-31T06:48:30.712Z,10.90
2022-10-31T06:51:00.706Z,10.73
2022-10-31T06:53:27.525Z,10.93
2022-10-31T06:55:53.773Z,11.05
2022-10-31T06:58:20.071Z,11.10
2022-10-31T07:00:46.386Z,10.82
2022-10-31T07:03:13.485Z,10.65
2022-10-31T07:05:39.799Z,10.70
2022-10-31T07:08:08.012Z,10.60
2022-10-31T07:10:39.144Z,9.43
2022-10-31T07:13:07.777Z,10.02
2022-10-31T07:15:35.063Z,9.82
2022-10-31T07:18:05.238Z,8.95
2022-10-31T07:20:32.180Z,9.18
2022-10-31T07:22:58.916Z,9.13
2022-10-31T07:25:25.325Z,8.63
2022-10-31T07:27:51.604Z,9.63
2022-10-31T07:30:19.159Z,9.68
2022-10-31T07:32:46.416Z,10.27
2022-10-31T07:35:14.005Z,10.63
2022-10-31T07:37:40.311Z,10.15
2022-10-31T07:40:07.349Z,10.57
2022-10-31T07:42:52.512Z,12.30
2022-10-31T07:45:20.179Z,12.43
2022-10-31T07:47:47.551Z,11.45
2022-10-31T07:50:34.715Z,11.75
2022-10-31T07:53:01.245Z,12.60
2022-10-31T07:55:28.467Z,10.48
2022-10-31T07:57:58.871Z,11.70
2022-10-31T08:00:25.517Z,12.20
2022-10-31T08:02:59.403Z,11.70
2022-10-31T08:05:26.015Z,12.13
2022-10-31T08:07:52.458Z,12.68
2022-10-31T08:10:18.778Z,12.20
2022-10-31T08:12:45.081Z,11.70
2022-10-31T08:15:11.381Z,12.70
2022-10-31T08:17:38.224Z,12.48
2022-10-31T08:20:05.268Z,11.68
2022-10-31T08:22:31.807Z,12.70
2022-10-31T08:24:58.511Z,13.15
2022-10-31T08:27:24.787Z,12.30
2022-10-31T08:29:51.459Z,13.00
2022-10-31T08:32:17.744Z,14.35
2022-10-31T08:34:44.023Z,13.13
2022-10-31T08:37:10.275Z,13.52
2022-10-31T08:39:36.546Z,13.07
2022-10-31T08:42:02.932Z,13.60
2022-10-31T08:44:29.208Z,13.00
2022-10-31T08:46:55.477Z,12.93
2022-10-31T08:49:22.384Z,13.95
2022-10-31T08:51:49.122Z,13.10
2022-10-31T08:54:15.380Z,13.63
2022-10-31T08:56:41.631Z,13.77
2022-10-31T08:59:07.886Z,14.75
2022-10-31T09:01:34.255Z,15.60
2022-10-31T09:04:00.610Z,14.82
2022-10-31T09:06:27.047Z,14.63
2022-10-31T09:08:53.484Z,15.00
2022-10-31T09:11:19.747Z,15.05
2022-10-31T09:13:46.006Z,15.77
2022-10-31T09:16:12.254Z,15.65
2022-10-31T09:18:38.541Z,15.02
2022-10-31T09:21:05.146Z,15.68
2022-10-31T09:23:31.500Z,16.80
2022-10-31T09:25:59.876Z,16.70
2022-10-31T09:28:26.177Z,15.90
2022-10-31T09:30:53.518Z,17.60
2022-10-31T09:33:20.564Z,16.35
2022-10-31T09:35:46.876Z,17.50
2022-10-31T09:38:17.118Z,16.17
2022-10-31T09:41:03.637Z,17.40
2022-10-31T09:43:45.013Z,17.77
2022-10-31T09:46:34.384Z,17.58
2022-10-31T09:49:19.313Z,16.23
2022-10-31T09:51:52.765Z,17.27
2022-10-31T09:54:21.536Z,18.67
2022-10-31T09:56:48.148Z,18.17
2022-10-31T09:59:20.072Z,17.50
2022-10-31T10:01:56.101Z,18.35
2022-10-31T10:04:34.484Z,19.92
2022-10-31T10:07:03.694Z,19.08
2022-10-31T10:09:30.124Z,18.70
2022-10-31T10:12:08.760Z,18.63
2022-10-31T10:14:35.022Z,18.50
2022-10-31T10:17:13.141Z,19.05
2022-10-31T10:19:48.594Z,19.63
2022-10-31T10:24:50.489Z,20.52
2022-10-31T10:27:29.298Z,20.00
2022-10-31T10:29:59.080Z,19.15
2022-10-31T10:32:29.588Z,19.73
2022-10-31T10:34:58.628Z,19.45
2022-10-31T10:37:31.507Z,20.65
2022-10-31T10:40:02.749Z,19.00
2022-10-31T10:42:47.712Z,13.70
2022-10-31T10:45:34.177Z,17.87
2022-10-31T10:48:09.102Z,18.95
2022-10-31T10:50:37.862Z,17.35
2022-10-31T10:53:32.511Z,19.00
2022-10-31T10:56:12.473Z,17.33
2022-10-31T10:58:39.911Z,17.55
2022-10-31T11:01:11.417Z,17.63
2022-10-31T11:03:37.915Z,15.07
2022-10-31T11:06:04.343Z,15.95
2022-10-31T11:08:34.965Z,16.75
2022-10-31T11:11:03.176Z,15.70
2022-10-31T11:13:30.604Z,14.25
2022-10-31T11:15:59.512Z,13.05
2022-10-31T16:47:10.511Z,20.08
2022-10-31T16:49:36.768Z,20.45
2022-10-31T16:52:03.022Z,19.48
2022-10-31T16:54:32.556Z,19.60
2022-10-31T16:56:59.831Z,19.23
2022-10-31T16:59:27.670Z,19.88
2022-10-31T17:01:55.118Z,17.27
2022-10-31T17:04:21.939Z,19.98
2022-10-31T17:06:48.221Z,19.00
2022-10-31T17:09:14.490Z,17.52
2022-10-31T17:11:49.530Z,18.88
2022-10-31T17:14:16.309Z,19.73
2022-10-31T17:16:42.594Z,16.70
2022-10-31T17:19:10.657Z,18.80
2022-10-31T17:21:37.449Z,20.05
2022-10-31T17:24:03.959Z,18.67
2022-10-31T17:26:30.316Z,20.30
2022-10-31T17:28:56.904Z,18.60
2022-10-31T17:31:26.998Z,19.33
2022-10-31T17:33:57.317Z,18.83
2022-10-31T17:36:27.994Z,19.60
2022-10-31T17:38:54.487Z,20.20
2022-10-31T17:41:21.003Z,19.77
2022-10-31T17:43:47.378Z,21.25
2022-10-31T17:46:13.778Z,20.20
2022-10-31T17:48:40.253Z,18.90
2022-10-31T17:51:07.039Z,20.90
2022-10-31T17:53:34.470Z,19.77
2022-10-31T17:56:05.096Z,20.00
2022-10-31T17:58:31.872Z,19.38
2022-10-31T18:00:58.526Z,19.02
2022-10-31T18:03:25.256Z,19.35
2022-10-31T18:05:52.554Z,18.73
2022-10-31T18:08:18.862Z,19.98
2022-10-31T18:10:45.265Z,19.80
2022-10-31T18:13:11.529Z,18.55
2022-10-31T18:15:40.563Z,20.52
2022-10-31T18:18:07.408Z,18.42
2022-10-31T18:20:33.833Z,19.67
2022-10-31T18:23:00.142Z,17.83
2022-10-31T18:25:26.543Z,18.48
2022-10-31T18:27:52.823Z,18.50
2022-10-31T18:30:19.131Z,18.77
2022-10-31T18:32:45.426Z,19.40
2022-10-31T18:35:11.709Z,19.23
2022-10-31T18:37:38.024Z,18.42
2022-10-31T18:40:04.454Z,19.30
2022-10-31T18:42:30.797Z,18.20
2022-10-31T18:45:00.199Z,21.00
2022-10-31T18:47:33.029Z,18.58
2022-10-31T18:49:59.296Z,17.77
2022-10-31T18:52:25.598Z,18.63
2022-10-31T18:54:51.914Z,17.25
2022-10-31T18:57:18.240Z,18.90
2022-10-31T18:59:44.507Z,18.05
2022-10-31T19:02:15.051Z,18.35
2022-10-31T19:04:41.588Z,18.35
2022-10-31T19:07:07.932Z,19.63
2022-10-31T19:09:34.450Z,17.33
2022-10-31T19:12:00.991Z,17.33
2022-10-31T19:14:27.276Z,18.38
2022-10-31T19:16:54.470Z,17.73
2022-10-31T19:19:21.908Z,17.27
2022-10-31T19:21:48.211Z,17.02
2022-10-31T19:24:14.481Z,16.45
2022-10-31T19:26:40.761Z,15.93
2022-10-31T19:29:07.047Z,16.05
2022-10-31T19:31:34.615Z,15.13
2022-10-31T19:34:00.942Z,16.92
2022-10-31T19:36:27.964Z,15.20
2022-10-31T19:38:54.248Z,15.13
2022-10-31T19:41:22.081Z,15.20
2022-10-31T19:43:48.597Z,14.07
2022-10-31T19:46:22.909Z,13.35
2022-10-31T19:49:01.244Z,13.20
2022-10-31T19:51:28.222Z,13.25
2022-10-31T19:53:54.574Z,13.60
2022-10-31T19:56:24.140Z,13.68
2022-10-31T19:58:50.801Z,14.27
2022-10-31T20:01:18.136Z,13.38
2022-10-31T20:03:45.082Z,12.07
2022-10-31T20:06:15.936Z,12.75
2022-10-31T20:08:42.205Z,11.98
2022-10-31T20:11:08.468Z,12.52
2022-10-31T20:13:34.770Z,12.80
2022-10-31T20:16:03.224Z,11.02
2022-10-31T20:18:29.993Z,11.25
2022-10-31T20:21:07.218Z,10.20
2022-10-31T20:23:34.096Z,10.43
2022-10-31T20:26:00.820Z,12.23
2022-10-31T20:28:27.438Z,9.07
2022-10-31T20:30:53.786Z,9.73
2022-10-31T20:33:20.100Z,10.25
2022-10-31T20:35:46.430Z,8.80
2022-10-31T20:38:13.000Z,9.45
2022-10-31T20:40:39.257Z,9.10
2022-10-31T20:43:05.639Z,8.38
2022-10-31T20:45:32.422Z,8.77
2022-10-31T20:47:59.482Z,8.57
2022-10-31T20:50:26.231Z,8.77
2022-10-31T20:52:52.610Z,8.70
2022-10-31T20:55:18.899Z,8.40
2022-10-31T20:57:45.220Z,8.55
2022-10-31T21:00:11.917Z,7.88
2022-10-31T21:02:43.016Z,7.88
2022-10-31T21:05:13.088Z,8.32
2022-10-31T21:07:39.823Z,7.82
2022-10-31T21:10:15.009Z,7.20
2022-10-31T21:12:44.850Z,7.40
2022-10-31T21:15:12.114Z,7.30
2022-10-31T21:17:38.479Z,8.05
2022-10-31T21:20:06.677Z,7.65
2022-10-31T21:22:32.962Z,7.22
2022-10-31T21:24:59.366Z,7.35
2022-10-31T21:27:26.039Z,7.45
2022-10-31T21:29:52.420Z,6.72
2022-10-31T21:32:18.674Z,7.60
2022-10-31T21:34:44.929Z,7.55
2022-10-31T21:37:11.205Z,6.38
2022-10-31T21:39:38.497Z,7.07
2022-10-31T21:42:04.853Z,7.07
2022-10-31T21:44:31.104Z,7.30
2022-10-31T21:46:57.398Z,8.32
2022-10-31T21:49:23.712Z,6.40
2022-10-31T21:51:50.135Z,6.18
2022-10-31T21:54:28.637Z,6.53
2022-10-31T21:56:55.529Z,6.60
2022-10-31T21:59:22.032Z,6.97
2022-10-31T22:01:48.618Z,7.00
2022-10-31T22:04:15.320Z,7.18
2022-10-31T22:06:41.920Z,6.13
2022-10-31T22:09:08.804Z,7.03
2022-10-31T22:11:35.459Z,5.80
2022-10-31T22:14:02.158Z,7.10
2022-10-31T22:16:29.210Z,6.22
2022-10-31T22:18:57.524Z,5.65
2022-10-31T22:21:24.858Z,6.35
2022-10-31T22:23:53.499Z,6.53
2022-10-31T22:26:20.140Z,5.95
2022-10-31T22:28:47.509Z,6.40
2022-10-31T22:31:16.275Z,5.72
2022-10-31T22:33:42.997Z,6.13
2022-10-31T22:36:10.455Z,6.22
2022-10-31T22:38:40.673Z,6.93
2022-10-31T22:41:07.927Z,5.35
2022-10-31T22:43:35.483Z,6.20
2022-10-31T22:46:04.908Z,6.47
2022-10-31T22:48:34.388Z,6.35
2022-10-31T22:51:07.498Z,6.65
2022-10-31T22:53:34.871Z,5.13
2022-10-31T22:56:01.524Z,4.82
2022-10-31T22:58:31.088Z,5.22
2022-10-31T23:00:57.455Z,5.70
2022-10-31T23:03:25.412Z,4.95
2022-10-31T23:06:01.143Z,6.13
2022-10-31T23:08:30.246Z,5.18
2022-10-31T23:10:56.771Z,5.13
2022-10-31T23:13:41.864Z,5.55
2022-10-31T23:16:08.907Z,4.90
2022-10-31T23:18:50.748Z,6.47
2022-10-31T23:21:37.498Z,5.10
2022-10-31T23:24:03.927Z,5.88
2022-10-31T23:26:48.926Z,5.72
2022-10-31T23:29:15.221Z,5.97
2022-10-31T23:31:41.537Z,5.15
2022-10-31T23:34:07.873Z,6.07
2022-10-31T23:36:34.219Z,6.43
2022-10-31T23:39:00.494Z,5.80
2022-10-31T23:41:27.088Z,5.32
2022-10-31T23:43:53.363Z,6.50
2022-10-31T23:46:19.653Z,4.75
2022-10-31T23:48:48.137Z,5.68
2022-10-31T23:51:15.029Z,5.80
2022-10-31T23:53:43.607Z,5.28
2022-10-31T23:56:09.913Z,7.65
2022-10-31T23:58:36.331Z,6.32
